sensor_id;sensor_type;location;lat;lon;timestamp;pressure;altitude;pressure_sealevel;temperature;humidity
4012;BME280;2020;48.682;9.024;2023-04-01T00:01:01;95135.53;;;5.84;100.00
4012;BME280;2020;48.682;9.024;2023-04-01T00:03:27;95132.50;;;5.89;100.00
4012;BME280;2020;48.682;9.024;2023-04-01T00:05:54;95132.50;;;5.89;100.00
4012;BME280;2020;48.682;9.024;2023-04-01T00:08:20;95136.69;;;5.90;100.00
4012;BME280;2020;48.682;9.024;2023-04-01T00:10:45;95137.66;;;5.89;100.00
4012;BME280;2020;48.682;9.024;2023-04-01T00:13:11;95136.50;;;5.92;100.00
4012;BME280;2020;48.682;9.024;2023-04-01T00:15:36;95139.75;;;5.94;100.00
4012;BME280;2020;48.682;9.024;2023-04-01T00:18:02;95137.34;;;5.92;100.00
4012;BME280;2020;48.682;9.024;2023-04-01T00:20:28;95143.59;;;5.90;100.00
4012;BME280;2020;48.682;9.024;2023-04-01T00:22:54;95142.47;;;5.84;100.00
4012;BME280;2020;48.682;9.024;2023-04-01T00:25:20;95128.44;;;5.86;100.00
4012;BME280;2020;48.682;9.024;2023-04-01T00:27:45;95135.84;;;5.81;100.00
4012;BME280;2020;48.682;9.024;2023-04-01T00:30:11;95130.38;;;5.84;100.00
4012;BME280;2020;48.682;9.024;2023-04-01T00:32:36;95140.06;;;5.91;100.00
4012;BME280;2020;48.682;9.024;2023-04-01T00:35:03;95143.16;;;5.94;100.00
4012;BME280;2020;48.682;9.024;2023-04-01T00:37:28;95139.25;;;5.90;100.00
4012;BME280;2020;48.682;9.024;2023-04-01T00:39:54;95137.16;;;5.94;100.00
4012;BME280;2020;48.682;9.024;2023-04-01T00:42:19;95138.44;;;5.90;100.00
4012;BME280;2020;48.682;9.024;2023-04-01T00:44:49;95132.50;;;5.89;100.00
4012;BME280;2020;48.682;9.024;2023-04-01T00:47:15;95135.53;;;5.93;100.00
4012;BME280;2020;48.682;9.024;2023-04-01T00:49:44;95137.00;;;5.95;100.00
4012;BME280;2020;48.682;9.024;2023-04-01T00:52:13;95135.53;;;5.93;100.00
4012;BME280;2020;48.682;9.024;2023-04-01T00:54:41;95134.28;;;5.97;100.00
4012;BME280;2020;48.682;9.024;2023-04-01T00:57:14;95145.72;;;5.94;100.00
4012;BME280;2020;48.682;9.024;2023-04-01T00:59:44;95138.13;;;5.93;100.00
4012;BME280;2020;48.682;9.024;2023-04-01T01:02:12;95133.44;;;5.88;100.00
4012;BME280;2020;48.682;9.024;2023-04-01T01:04:38;95133.28;;;5.90;100.00
4012;BME280;2020;48.682;9.024;2023-04-01T01:07:35;95132.63;;;5.88;100.00
4012;BME280;2020;48.682;9.024;2023-04-01T01:10:16;95135.22;;;5.88;100.00
4012;BME280;2020;48.682;9.024;2023-04-01T01:15:24;95129.72;;;5.91;100.00
4012;BME280;2020;48.682;9.024;2023-04-01T01:37:46;95136.81;;;5.89;100.00
4012;BME280;2020;48.682;9.024;2023-04-01T01:40:13;95130.03;;;5.88;100.00
4012;BME280;2020;48.682;9.024;2023-04-01T01:42:44;95141.00;;;5.81;100.00
4012;BME280;2020;48.682;9.024;2023-04-01T01:45:12;95131.81;;;5.79;100.00
4012;BME280;2020;48.682;9.024;2023-04-01T01:47:40;95132.63;;;5.79;100.00
4012;BME280;2020;48.682;9.024;2023-04-01T01:50:07;95131.00;;;5.78;100.00
4012;BME280;2020;48.682;9.024;2023-04-01T01:52:33;95133.25;;;5.73;100.00
4012;BME280;2020;48.682;9.024;2023-04-01T01:54:58;95125.84;;;5.78;100.00
4012;BME280;2020;48.682;9.024;2023-04-01T01:57:33;95124.22;;;5.77;100.00
4012;BME280;2020;48.682;9.024;2023-04-01T02:00:05;95127.75;;;5.76;100.00
4012;BME280;2020;48.682;9.024;2023-04-01T02:02:39;95132.94;;;5.76;100.00
4012;BME280;2020;48.682;9.024;2023-04-01T02:05:06;95126.16;;;5.75;100.00
4012;BME280;2020;48.682;9.024;2023-04-01T02:07:35;95120.66;;;5.78;100.00
4012;BME280;2020;48.682;9.024;2023-04-01T02:10:01;95122.13;;;5.73;100.00
4012;BME280;2020;48.682;9.024;2023-04-01T02:12:28;95124.53;;;5.74;100.00
4012;BME280;2020;48.682;9.024;2023-04-01T02:15:03;95133.25;;;5.73;100.00
4012;BME280;2020;48.682;9.024;2023-04-01T02:17:31;95133.22;;;5.65;100.00
4012;BME280;2020;48.682;9.024;2023-04-01T02:20:00;95135.81;;;5.65;100.00
4012;BME280;2020;48.682;9.024;2023-04-01T02:22:33;95146.44;;;5.62;100.00
4012;BME280;2020;48.682;9.024;2023-04-01T02:25:04;95134.50;;;5.61;100.00
4012;BME280;2020;48.682;9.024;2023-04-01T02:27:30;95131.94;;;5.61;100.00
4012;BME280;2020;48.682;9.024;2023-04-01T02:29:56;95126.13;;;5.59;100.00
4012;BME280;2020;48.682;9.024;2023-04-01T02:32:22;95132.56;;;5.54;100.00
4012;BME280;2020;48.682;9.024;2023-04-01T02:34:49;95129.00;;;5.55;100.00
4012;BME280;2020;48.682;9.024;2023-04-01T02:37:14;95124.78;;;5.46;100.00
4012;BME280;2020;48.682;9.024;2023-04-01T02:39:40;95133.84;;;5.50;100.00
4012;BME280;2020;48.682;9.024;2023-04-01T02:42:07;95134.47;;;5.52;100.00
4012;BME280;2020;48.682;9.024;2023-04-01T02:44:33;95126.75;;;5.52;100.00
4012;BME280;2020;48.682;9.024;2023-04-01T02:46:58;95144.16;;;5.50;100.00
4012;BME280;2020;48.682;9.024;2023-04-01T02:49:23;95134.47;;;5.44;100.00
4012;BME280;2020;48.682;9.024;2023-04-01T02:51:49;95132.03;;;5.43;100.00
4012;BME280;2020;48.682;9.024;2023-04-01T02:54:14;95137.66;;;5.38;100.00
4012;BME280;2020;48.682;9.024;2023-04-01T02:56:39;95132.81;;;5.35;100.00
4012;BME280;2020;48.682;9.024;2023-04-01T02:59:05;95135.09;;;5.38;100.00
4012;BME280;2020;48.682;9.024;2023-04-01T03:01:30;95142.47;;;5.33;100.00
4012;BME280;2020;48.682;9.024;2023-04-01T03:03:55;95128.94;;;5.31;100.00
4012;BME280;2020;48.682;9.024;2023-04-01T03:06:20;95125.03;;;5.26;100.00
4012;BME280;2020;48.682;9.024;2023-04-01T03:08:46;95130.53;;;5.32;100.00
4012;BME280;2020;48.682;9.024;2023-04-01T03:11:12;95136.31;;;5.25;100.00
4012;BME280;2020;48.682;9.024;2023-04-01T03:13:37;95133.13;;;5.32;100.00
4012;BME280;2020;48.682;9.024;2023-04-01T03:16:02;95131.84;;;5.36;100.00
4012;BME280;2020;48.682;9.024;2023-04-01T03:18:28;95124.06;;;5.27;100.00
4012;BME280;2020;48.682;9.024;2023-04-01T03:20:53;95136.31;;;5.25;100.00
4012;BME280;2020;48.682;9.024;2023-04-01T03:23:18;95123.75;;;5.31;99.60
4012;BME280;2020;48.682;9.024;2023-04-01T03:25:46;95140.91;;;5.40;99.48
4012;BME280;2020;48.682;9.024;2023-04-01T03:28:11;95135.69;;;5.32;99.41
4012;BME280;2020;48.682;9.024;2023-04-01T03:30:38;95137.31;;;5.33;99.57
4012;BME280;2020;48.682;9.024;2023-04-01T03:33:03;95136.03;;;5.37;99.17
4012;BME280;2020;48.682;9.024;2023-04-01T03:35:28;95133.78;;;5.34;98.63
4012;BME280;2020;48.682;9.024;2023-04-01T03:37:54;95132.66;;;5.36;99.41
4012;BME280;2020;48.682;9.024;2023-04-01T03:40:20;95138.63;;;5.37;99.03
4012;BME280;2020;48.682;9.024;2023-04-01T03:42:46;95139.25;;;5.31;99.16
4012;BME280;2020;48.682;9.024;2023-04-01T03:45:12;95136.00;;;5.29;99.26
4012;BME280;2020;48.682;9.024;2023-04-01T03:47:38;95141.53;;;5.34;99.34
4012;BME280;2020;48.682;9.024;2023-04-01T03:50:04;95138.28;;;5.32;98.95
4012;BME280;2020;48.682;9.024;2023-04-01T03:52:29;95139.25;;;5.31;98.69
4012;BME280;2020;48.682;9.024;2023-04-01T03:54:54;95132.78;;;5.26;97.96
4012;BME280;2020;48.682;9.024;2023-04-01T03:57:20;95125.69;;;5.29;98.32
4012;BME280;2020;48.682;9.024;2023-04-01T03:59:45;95126.00;;;5.25;98.33
4012;BME280;2020;48.682;9.024;2023-04-01T04:02:10;95117.28;;;5.18;98.76
4012;BME280;2020;48.682;9.024;2023-04-01T04:04:35;95117.84;;;5.04;98.64
4012;BME280;2020;48.682;9.024;2023-04-01T04:07:01;95109.16;;;5.05;98.87
4012;BME280;2020;48.682;9.024;2023-04-01T04:09:26;95110.44;;;5.01;99.88
4012;BME280;2020;48.682;9.024;2023-04-01T04:11:51;95115.59;;;5.01;99.41
4012;BME280;2020;48.682;9.024;2023-04-01T04:14:17;95113.00;;;5.01;99.35
4012;BME280;2020;48.682;9.024;2023-04-01T04:16:42;95113.09;;;4.91;99.61
4012;BME280;2020;48.682;9.024;2023-04-01T04:19:08;95114.88;;;4.90;100.00
4012;BME280;2020;48.682;9.024;2023-04-01T04:21:33;95110.38;;;4.92;99.39
4012;BME280;2020;48.682;9.024;2023-04-01T04:24:00;95113.28;;;4.89;99.75
4012;BME280;2020;48.682;9.024;2023-04-01T04:26:26;95115.81;;;4.81;99.69
4012;BME280;2020;48.682;9.024;2023-04-01T04:28:51;95114.53;;;4.85;100.00
4012;BME280;2020;48.682;9.024;2023-04-01T04:31:21;95118.06;;;4.84;100.00
4012;BME280;2020;48.682;9.024;2023-04-01T04:33:46;95113.22;;;4.81;100.00
4012;BME280;2020;48.682;9.024;2023-04-01T04:36:12;95124.50;;;4.80;100.00
4012;BME280;2020;48.682;9.024;2023-04-01T04:38:38;95115.09;;;4.71;100.00
4012;BME280;2020;48.682;9.024;2023-04-01T04:41:03;95115.75;;;4.73;100.00
4012;BME280;2020;48.682;9.024;2023-04-01T04:43:28;95117.69;;;4.71;100.00
4012;BME280;2020;48.682;9.024;2023-04-01T04:45:54;95113.47;;;4.70;100.00
4012;BME280;2020;48.682;9.024;2023-04-01T04:48:19;95112.53;;;4.71;100.00
4012;BME280;2020;48.682;9.024;2023-04-01T04:50:49;95113.47;;;4.70;100.00
4012;BME280;2020;48.682;9.024;2023-04-01T04:53:16;95113.84;;;4.75;100.00
4012;BME280;2020;48.682;9.024;2023-04-01T04:55:46;95123.38;;;4.82;100.00
4012;BME280;2020;48.682;9.024;2023-04-01T04:58:12;95102.59;;;4.84;100.00
4012;BME280;2020;48.682;9.024;2023-04-01T05:00:38;95100.06;;;4.92;100.00
4012;BME280;2020;48.682;9.024;2023-04-01T05:03:03;95098.63;;;4.98;100.00
4012;BME280;2020;48.682;9.024;2023-04-01T05:05:28;95111.06;;;5.03;100.00
4012;BME280;2020;48.682;9.024;2023-04-01T05:07:53;95102.41;;;5.12;100.00
4012;BME280;2020;48.682;9.024;2023-04-01T05:10:19;95099.22;;;5.18;100.00
4012;BME280;2020;48.682;9.024;2023-04-01T05:12:45;95105.16;;;5.19;100.00
4012;BME280;2020;48.682;9.024;2023-04-01T05:15:11;95111.16;;;5.19;100.00
4012;BME280;2020;48.682;9.024;2023-04-01T05:17:36;95105.69;;;5.22;100.00
4012;BME280;2020;48.682;9.024;2023-04-01T05:20:02;95105.69;;;5.22;100.00
4012;BME280;2020;48.682;9.024;2023-04-01T05:22:27;95092.47;;;5.25;100.00
4012;BME280;2020;48.682;9.024;2023-04-01T05:24:52;95098.78;;;5.31;99.91
4012;BME280;2020;48.682;9.024;2023-04-01T05:27:18;95092.16;;;5.29;100.00
4012;BME280;2020;48.682;9.024;2023-04-01T05:29:43;95094.09;;;5.35;99.84
4012;BME280;2020;48.682;9.024;2023-04-01T05:32:08;95093.47;;;5.41;98.45
4012;BME280;2020;48.682;9.024;2023-04-01T05:34:34;95095.09;;;5.42;97.70
4012;BME280;2020;48.682;9.024;2023-04-01T05:36:59;95086.38;;;5.43;98.19
4012;BME280;2020;48.682;9.024;2023-04-01T05:39:24;95086.06;;;5.46;97.76
4012;BME280;2020;48.682;9.024;2023-04-01T05:41:50;95080.91;;;5.46;97.47
4012;BME280;2020;48.682;9.024;2023-04-01T05:44:15;95067.38;;;5.44;97.72
4012;BME280;2020;48.682;9.024;2023-04-01T05:46:41;95079.63;;;5.42;97.84
4012;BME280;2020;48.682;9.024;2023-04-01T05:49:06;95087.53;;;5.40;97.23
4012;BME280;2020;48.682;9.024;2023-04-01T05:51:31;95088.50;;;5.48;96.41
4012;BME280;2020;48.682;9.024;2023-04-01T05:53:57;95092.56;;;5.59;97.01
4012;BME280;2020;48.682;9.024;2023-04-01T05:56:22;95093.41;;;5.76;96.67
4012;BME280;2020;48.682;9.024;2023-04-01T05:58:51;95088.09;;;5.94;94.44
4012;BME280;2020;48.682;9.024;2023-04-01T06:01:17;95088.16;;;6.02;92.44
4012;BME280;2020;48.682;9.024;2023-04-01T06:03:43;95090.88;;;6.09;92.91
4012;BME280;2020;48.682;9.024;2023-04-01T06:06:22;95100.44;;;6.08;91.59
4012;BME280;2020;48.682;9.024;2023-04-01T06:08:48;95089.44;;;6.06;90.64
4012;BME280;2020;48.682;9.024;2023-04-01T06:11:23;95086.88;;;6.06;92.17
4012;BME280;2020;48.682;9.024;2023-04-01T06:13:57;95087.47;;;6.00;92.08
4012;BME280;2020;48.682;9.024;2023-04-01T06:16:43;95079.72;;;6.00;91.84
4012;BME280;2020;48.682;9.024;2023-04-01T06:19:14;95069.75;;;6.05;92.03
4012;BME280;2020;48.682;9.024;2023-04-01T06:21:56;95086.53;;;6.09;92.84
4012;BME280;2020;48.682;9.024;2023-04-01T06:30:02;95085.88;;;5.99;92.58
4012;BME280;2020;48.682;9.024;2023-04-01T06:38:05;95080.84;;;5.89;93.60
4012;BME280;2020;48.682;9.024;2023-04-01T06:43:58;95081.63;;;5.90;94.34
4012;BME280;2020;48.682;9.024;2023-04-01T06:52:05;95069.38;;;5.92;95.83
4012;BME280;2020;48.682;9.024;2023-04-01T06:54:33;95078.91;;;5.91;95.59
4012;BME280;2020;48.682;9.024;2023-04-01T06:57:56;95082.03;;;6.03;96.58
4012;BME280;2020;48.682;9.024;2023-04-01T07:00:31;95082.63;;;5.97;95.46
4012;BME280;2020;48.682;9.024;2023-04-01T07:03:05;95072.97;;;6.07;96.63
4012;BME280;2020;48.682;9.024;2023-04-01T07:05:33;95071.69;;;6.11;96.01
4012;BME280;2020;48.682;9.024;2023-04-01T07:08:02;95075.25;;;6.02;95.12
4012;BME280;2020;48.682;9.024;2023-04-01T07:13:10;95079.13;;;6.06;95.72
4012;BME280;2020;48.682;9.024;2023-04-01T07:15:41;95077.00;;;6.10;95.70
4012;BME280;2020;48.682;9.024;2023-04-01T07:18:14;95072.34;;;6.13;95.73
4012;BME280;2020;48.682;9.024;2023-04-01T07:20:42;95076.53;;;6.14;95.82
4012;BME280;2020;48.682;9.024;2023-04-01T07:23:16;95083.13;;;6.17;96.00
4012;BME280;2020;48.682;9.024;2023-04-01T07:25:47;95073.63;;;6.18;96.00
4012;BME280;2020;48.682;9.024;2023-04-01T07:28:16;95070.06;;;6.19;95.83
4012;BME280;2020;48.682;9.024;2023-04-01T07:30:57;95079.44;;;6.20;94.92
4012;BME280;2020;48.682;9.024;2023-04-01T07:33:35;95076.34;;;6.16;95.68
4012;BME280;2020;48.682;9.024;2023-04-01T07:36:17;95090.41;;;6.22;94.93
4012;BME280;2020;48.682;9.024;2023-04-01T07:39:06;95089.25;;;6.24;94.75
4012;BME280;2020;48.682;9.024;2023-04-01T07:41:57;95092.66;;;6.33;95.48
4012;BME280;2020;48.682;9.024;2023-04-01T07:47:29;95090.72;;;6.35;95.13
4012;BME280;2020;48.682;9.024;2023-04-01T07:50:08;95101.22;;;6.42;96.51
4012;BME280;2020;48.682;9.024;2023-04-01T07:52:55;95099.59;;;6.41;95.08
4012;BME280;2020;48.682;9.024;2023-04-01T07:55:47;95091.69;;;6.42;94.78
4012;BME280;2020;48.682;9.024;2023-04-01T07:58:43;95099.91;;;6.38;95.46
4012;BME280;2020;48.682;9.024;2023-04-01T08:01:16;95105.25;;;6.36;94.08
4012;BME280;2020;48.682;9.024;2023-04-01T08:06:49;95101.38;;;6.40;96.00
4012;BME280;2020;48.682;9.024;2023-04-01T08:09:25;95102.69;;;6.36;96.36
4012;BME280;2020;48.682;9.024;2023-04-01T08:12:08;95103.16;;;6.40;97.17
4012;BME280;2020;48.682;9.024;2023-04-01T08:20:48;95105.06;;;6.46;98.62
4012;BME280;2020;48.682;9.024;2023-04-01T08:23:19;95107.53;;;6.48;97.86
4012;BME280;2020;48.682;9.024;2023-04-01T08:25:51;95119.47;;;6.49;98.18
4012;BME280;2020;48.682;9.024;2023-04-01T08:28:48;95112.69;;;6.39;98.70
4012;BME280;2020;48.682;9.024;2023-04-01T08:31:26;95113.47;;;6.40;99.86
4012;BME280;2020;48.682;9.024;2023-04-01T08:33:55;95121.41;;;6.38;100.00
4012;BME280;2020;48.682;9.024;2023-04-01T08:36:24;95125.28;;;6.34;100.00
4012;BME280;2020;48.682;9.024;2023-04-01T08:38:57;95134.97;;;6.24;100.00
4012;BME280;2020;48.682;9.024;2023-04-01T08:42:29;95130.47;;;6.18;100.00
4012;BME280;2020;48.682;9.024;2023-04-01T08:44:59;95123.69;;;6.17;100.00
4012;BME280;2020;48.682;9.024;2023-04-01T08:47:33;95130.44;;;6.09;100.00
4012;BME280;2020;48.682;9.024;2023-04-01T08:53:06;95125.63;;;6.14;100.00
4012;BME280;2020;48.682;9.024;2023-04-01T08:56:03;95117.53;;;6.18;100.00
4012;BME280;2020;48.682;9.024;2023-04-01T08:58:40;95131.09;;;6.28;100.00
4012;BME280;2020;48.682;9.024;2023-04-01T09:04:03;95113.97;;;6.60;100.00
4012;BME280;2020;48.682;9.024;2023-04-01T09:09:32;95114.88;;;6.84;100.00
4012;BME280;2020;48.682;9.024;2023-04-01T09:12:27;95106.09;;;7.01;100.00
4012;BME280;2020;48.682;9.024;2023-04-01T09:23:10;95117.09;;;7.83;99.93
4012;BME280;2020;48.682;9.024;2023-04-01T09:25:45;95113.47;;;7.93;100.00
4012;BME280;2020;48.682;9.024;2023-04-01T09:28:28;95116.06;;;7.93;95.61
4012;BME280;2020;48.682;9.024;2023-04-01T09:31:10;95129.44;;;7.73;97.11
4012;BME280;2020;48.682;9.024;2023-04-01T09:36:44;95143.56;;;7.22;96.73
4012;BME280;2020;48.682;9.024;2023-04-01T09:39:23;95121.25;;;7.21;98.51
4012;BME280;2020;48.682;9.024;2023-04-01T09:44:42;95145.22;;;7.07;95.84
4012;BME280;2020;48.682;9.024;2023-04-01T09:50:14;95149.13;;;7.02;97.09
4012;BME280;2020;48.682;9.024;2023-04-01T10:15:35;95151.09;;;6.92;95.47
4012;BME280;2020;48.682;9.024;2023-04-01T10:18:14;95162.22;;;7.01;94.56
4012;BME280;2020;48.682;9.024;2023-04-01T10:20:59;95155.91;;;7.03;95.33
4012;BME280;2020;48.682;9.024;2023-04-01T10:26:39;95146.78;;;7.24;92.97
4012;BME280;2020;48.682;9.024;2023-04-01T10:29:50;95158.06;;;7.48;91.63
4012;BME280;2020;48.682;9.024;2023-04-01T10:33:01;95160.88;;;7.70;90.05
4012;BME280;2020;48.682;9.024;2023-04-01T10:55:22;95169.91;;;8.29;84.97
4012;BME280;2020;48.682;9.024;2023-04-01T11:06:30;95159.06;;;8.02;85.57
4012;BME280;2020;48.682;9.024;2023-04-01T11:12:42;95161.28;;;8.13;84.66
4012;BME280;2020;48.682;9.024;2023-04-01T11:29:08;95174.28;;;8.05;83.59
4012;BME280;2020;48.682;9.024;2023-04-01T11:43:35;95195.38;;;8.25;82.14
4012;BME280;2020;48.682;9.024;2023-04-01T11:46:17;95190.50;;;7.99;81.65
4012;BME280;2020;48.682;9.024;2023-04-01T11:49:04;95192.22;;;8.15;82.01
4012;BME280;2020;48.682;9.024;2023-04-01T11:51:50;95219.06;;;7.90;80.28
4012;BME280;2020;48.682;9.024;2023-04-01T11:54:49;95195.69;;;7.99;82.15
4012;BME280;2020;48.682;9.024;2023-04-01T11:57:43;95198.63;;;7.96;81.23
4012;BME280;2020;48.682;9.024;2023-04-01T12:00:34;95186.50;;;8.19;81.94
4012;BME280;2020;48.682;9.024;2023-04-01T12:11:12;95203.03;;;8.50;80.33
4012;BME280;2020;48.682;9.024;2023-04-01T12:14:16;95196.53;;;8.23;80.29
4012;BME280;2020;48.682;9.024;2023-04-01T12:16:54;95201.41;;;8.49;82.09
4012;BME280;2020;48.682;9.024;2023-04-01T12:19:26;95201.03;;;8.29;80.10
4012;BME280;2020;48.682;9.024;2023-04-01T12:24:36;95204.84;;;8.18;82.39
4012;BME280;2020;48.682;9.024;2023-04-01T12:27:18;95213.09;;;8.13;83.41
4012;BME280;2020;48.682;9.024;2023-04-01T12:32:22;95211.84;;;8.09;85.25
4012;BME280;2020;48.682;9.024;2023-04-01T12:34:54;95212.50;;;8.03;87.42
4012;BME280;2020;48.682;9.024;2023-04-01T12:42:51;95198.38;;;8.37;87.92
4012;BME280;2020;48.682;9.024;2023-04-01T12:48:39;95208.28;;;9.03;82.75
4012;BME280;2020;48.682;9.024;2023-04-01T12:59:43;95210.47;;;8.76;81.77
4012;BME280;2020;48.682;9.024;2023-04-01T13:02:36;95212.69;;;8.80;80.14
4012;BME280;2020;48.682;9.024;2023-04-01T13:07:53;95227.56;;;8.86;80.58
4012;BME280;2020;48.682;9.024;2023-04-01T13:13:34;95219.03;;;8.54;80.68
4012;BME280;2020;48.682;9.024;2023-04-01T13:16:34;95217.69;;;8.66;80.77
4012;BME280;2020;48.682;9.024;2023-04-01T13:19:14;95218.88;;;8.78;78.95
4012;BME280;2020;48.682;9.024;2023-04-01T13:21:55;95215.22;;;8.88;79.02
4012;BME280;2020;48.682;9.024;2023-04-01T13:29:24;95223.53;;;8.60;78.15
4012;BME280;2020;48.682;9.024;2023-04-01T13:32:05;95230.53;;;8.28;79.65
4012;BME280;2020;48.682;9.024;2023-04-01T13:34:39;95223.31;;;8.38;79.42
4012;BME280;2020;48.682;9.024;2023-04-01T13:37:30;95229.50;;;8.37;79.15
4012;BME280;2020;48.682;9.024;2023-04-01T13:42:50;95230.06;;;8.47;79.17
4012;BME280;2020;48.682;9.024;2023-04-01T13:45:24;95242.97;;;8.64;81.45
4012;BME280;2020;48.682;9.024;2023-04-01T13:48:12;95223.53;;;8.60;79.17
4012;BME280;2020;48.682;9.024;2023-04-01T13:56:33;95231.28;;;8.68;81.33
4012;BME280;2020;48.682;9.024;2023-04-01T14:02:04;95249.09;;;9.10;81.75
4012;BME280;2020;48.682;9.024;2023-04-01T14:07:36;95230.59;;;8.74;80.57
4012;BME280;2020;48.682;9.024;2023-04-01T14:12:59;95241.88;;;8.82;79.09
4012;BME280;2020;48.682;9.024;2023-04-01T14:18:13;95244.34;;;8.75;81.29
4012;BME280;2020;48.682;9.024;2023-04-01T14:23:56;95244.28;;;8.60;83.33
4012;BME280;2020;48.682;9.024;2023-04-01T14:26:52;95249.38;;;8.76;82.41
4012;BME280;2020;48.682;9.024;2023-04-01T14:32:31;95251.91;;;8.85;80.62
4012;BME280;2020;48.682;9.024;2023-04-01T14:40:28;95252.19;;;8.67;77.94
4012;BME280;2020;48.682;9.024;2023-04-01T14:50:18;95258.47;;;8.49;79.24
4012;BME280;2020;48.682;9.024;2023-04-01T14:53:11;95259.84;;;8.60;78.21
4012;BME280;2020;48.682;9.024;2023-04-01T14:58:12;95248.53;;;8.53;79.10
4012;BME280;2020;48.682;9.024;2023-04-01T15:00:50;95250.50;;;8.51;78.50
4012;BME280;2020;48.682;9.024;2023-04-01T15:03:28;95261.38;;;8.77;80.44
4012;BME280;2020;48.682;9.024;2023-04-01T15:06:09;95248.19;;;8.56;78.52
4012;BME280;2020;48.682;9.024;2023-04-01T15:09:10;95265.03;;;8.60;79.23
4012;BME280;2020;48.682;9.024;2023-04-01T15:23:07;95280.31;;;8.78;78.35
4012;BME280;2020;48.682;9.024;2023-04-01T15:28:25;95265.97;;;8.67;78.65
4012;BME280;2020;48.682;9.024;2023-04-01T15:33:37;95289.28;;;8.75;78.74
4012;BME280;2020;48.682;9.024;2023-04-01T15:47:01;95305.97;;;8.73;79.64
4012;BME280;2020;48.682;9.024;2023-04-01T15:49:44;95303.97;;;8.52;80.37
4012;BME280;2020;48.682;9.024;2023-04-01T15:52:22;95301.06;;;8.46;83.38
4012;BME280;2020;48.682;9.024;2023-04-01T15:54:56;95307.56;;;8.51;84.46
4012;BME280;2020;48.682;9.024;2023-04-01T15:58:03;95312.72;;;8.51;85.12
4012;BME280;2020;48.682;9.024;2023-04-01T16:00:42;95320.22;;;8.37;84.10
4012;BME280;2020;48.682;9.024;2023-04-01T16:03:40;95316.03;;;8.36;87.47
4012;BME280;2020;48.682;9.024;2023-04-01T16:17:43;95309.97;;;8.12;83.88
4012;BME280;2020;48.682;9.024;2023-04-01T16:23:26;95303.84;;;8.05;84.15
4012;BME280;2020;48.682;9.024;2023-04-01T16:26:22;95307.69;;;8.17;84.86
4012;BME280;2020;48.682;9.024;2023-04-01T16:29:05;95300.53;;;8.19;84.00
4012;BME280;2020;48.682;9.024;2023-04-01T16:34:39;95306.66;;;8.27;83.87
4012;BME280;2020;48.682;9.024;2023-04-01T16:37:19;95309.91;;;8.29;82.99
4012;BME280;2020;48.682;9.024;2023-04-01T16:40:13;95307.34;;;8.20;82.39
4012;BME280;2020;48.682;9.024;2023-04-01T16:45:21;95314.81;;;8.15;81.88
4012;BME280;2020;48.682;9.024;2023-04-01T16:47:54;95322.28;;;8.10;81.40
4012;BME280;2020;48.682;9.024;2023-04-01T16:50:27;95317.44;;;8.07;83.58
4012;BME280;2020;48.682;9.024;2023-04-01T16:58:35;95322.97;;;8.04;83.68
4012;BME280;2020;48.682;9.024;2023-04-01T17:01:05;95316.84;;;7.97;83.84
4012;BME280;2020;48.682;9.024;2023-04-01T17:03:37;95321.69;;;8.00;84.14
4012;BME280;2020;48.682;9.024;2023-04-01T17:06:29;95325.75;;;8.02;84.33
4012;BME280;2020;48.682;9.024;2023-04-01T17:09:02;95319.28;;;7.98;84.03
4012;BME280;2020;48.682;9.024;2023-04-01T17:11:39;95328.81;;;7.98;83.74
4012;BME280;2020;48.682;9.024;2023-04-01T17:14:24;95335.94;;;7.96;83.86
4012;BME280;2020;48.682;9.024;2023-04-01T17:16:54;95334.66;;;7.92;82.76
4012;BME280;2020;48.682;9.024;2023-04-01T17:25:07;95336.47;;;7.83;82.76
4012;BME280;2020;48.682;9.024;2023-04-01T17:27:48;95343.41;;;7.90;83.75
4012;BME280;2020;48.682;9.024;2023-04-01T17:30:52;95346.31;;;7.96;82.63
4012;BME280;2020;48.682;9.024;2023-04-01T17:47:29;95371.09;;;7.82;83.87
4012;BME280;2020;48.682;9.024;2023-04-01T17:50:19;95366.75;;;7.82;84.01
4012;BME280;2020;48.682;9.024;2023-04-01T17:56:17;95376.81;;;7.69;84.96
4012;BME280;2020;48.682;9.024;2023-04-01T18:01:42;95380.38;;;7.68;87.15
4012;BME280;2020;48.682;9.024;2023-04-01T18:04:46;95397.53;;;7.69;87.73
4012;BME280;2020;48.682;9.024;2023-04-01T18:16:00;95425.06;;;7.37;93.17
4012;BME280;2020;48.682;9.024;2023-04-01T18:23:47;95433.72;;;7.11;91.24
4012;BME280;2020;48.682;9.024;2023-04-01T18:26:28;95433.56;;;6.96;91.16
4012;BME280;2020;48.682;9.024;2023-04-01T18:31:44;95436.91;;;6.88;89.43
4012;BME280;2020;48.682;9.024;2023-04-01T18:34:30;95436.91;;;6.88;89.50
4012;BME280;2020;48.682;9.024;2023-04-01T18:37:22;95444.34;;;6.83;89.11
4012;BME280;2020;48.682;9.024;2023-04-01T18:40:19;95443.03;;;6.79;89.39
4012;BME280;2020;48.682;9.024;2023-04-01T18:43:02;95446.25;;;6.72;87.87
4012;BME280;2020;48.682;9.024;2023-04-01T18:45:33;95447.22;;;6.71;88.95
4012;BME280;2020;48.682;9.024;2023-04-01T18:48:12;95446.59;;;6.78;88.13
4012;BME280;2020;48.682;9.024;2023-04-01T18:50:57;95447.69;;;6.67;88.56
4012;BME280;2020;48.682;9.024;2023-04-01T18:53:45;95457.66;;;6.62;88.69
4012;BME280;2020;48.682;9.024;2023-04-01T18:56:26;95456.19;;;6.51;88.53
4012;BME280;2020;48.682;9.024;2023-04-01T18:59:05;95454.56;;;6.50;89.32
4012;BME280;2020;48.682;9.024;2023-04-01T19:01:42;95451.66;;;6.53;90.46
4012;BME280;2020;48.682;9.024;2023-04-01T19:04:30;95447.09;;;6.47;89.15
4012;BME280;2020;48.682;9.024;2023-04-01T19:06:58;95456.19;;;6.51;89.84
4012;BME280;2020;48.682;9.024;2023-04-01T19:09:32;95454.56;;;6.50;90.69
4012;BME280;2020;48.682;9.024;2023-04-01T19:12:08;95462.97;;;6.52;90.63
4012;BME280;2020;48.682;9.024;2023-04-01T19:17:48;95456.09;;;6.34;90.77
4012;BME280;2020;48.682;9.024;2023-04-01T19:20:22;95466.44;;;6.34;91.57
4012;BME280;2020;48.682;9.024;2023-04-01T19:25:50;95468.38;;;6.32;92.21
4012;BME280;2020;48.682;9.024;2023-04-01T19:28:26;95469.97;;;6.33;91.86
4012;BME280;2020;48.682;9.024;2023-04-01T19:31:43;95467.06;;;6.28;92.05
4012;BME280;2020;48.682;9.024;2023-04-01T19:36:59;95469.97;;;6.33;91.72
4012;BME280;2020;48.682;9.024;2023-04-01T19:39:43;95466.03;;;6.21;91.68
4012;BME280;2020;48.682;9.024;2023-04-01T19:42:24;95460.47;;;6.07;92.75
4012;BME280;2020;48.682;9.024;2023-04-01T19:47:58;95461.06;;;6.01;92.86
4012;BME280;2020;48.682;9.024;2023-04-01T19:50:34;95459.44;;;6.00;93.90
4012;BME280;2020;48.682;9.024;2023-04-01T19:56:14;95467.75;;;5.94;93.56
4012;BME280;2020;48.682;9.024;2023-04-01T19:59:01;95487.03;;;5.81;94.86
4012;BME280;2020;48.682;9.024;2023-04-01T20:01:56;95485.13;;;5.83;94.93
4012;BME280;2020;48.682;9.024;2023-04-01T20:04:31;95482.88;;;5.89;94.59
4012;BME280;2020;48.682;9.024;2023-04-01T20:07:16;95483.50;;;5.82;94.51